Time;durP1;ratioP1;P1;durP2;ratioP2;P2;SDS_P1;SDS_P2;PMS_P1;PMS_P2;Temp;Humidity;BMP_temperature;BMP_pressure;BME280_temperature;BME280_humidity;BME280_pressure;Samples;Min_cycle;Max_cycle;Signal;HPM_P1;HPM_P2
2021/01/28 00:01:37;;;;;;;3.53;3.20;;;9.10;99.90;;;;;;4980083;28;20206;-47
2021/01/28 00:04:08;;;;;;;4.28;2.85;;;9.10;99.90;;;;;;4981923;28;20198;-49
2021/01/28 00:06:39;;;;;;;3.88;3.50;;;9.10;99.90;;;;;;4979398;28;20212;-48
2021/01/28 00:09:09;;;;;;;4.88;4.47;;;9.10;99.90;;;;;;4965455;28;20209;-50
2021/01/28 00:11:41;;;;;;;3.40;3.10;;;9.20;99.90;;;;;;4983119;28;20237;-48
2021/01/28 00:14:12;;;;;;;5.55;4.00;;;9.10;99.90;;;;;;4975386;28;20205;-50
2021/01/28 00:16:42;;;;;;;3.92;3.55;;;9.00;99.90;;;;;;4973287;28;20296;-47
2021/01/28 00:19:13;;;;;;;4.15;3.70;;;9.00;99.90;;;;;;4973473;28;20222;-49
2021/01/28 00:21:44;;;;;;;3.53;3.13;;;8.90;99.90;;;;;;4974533;28;20213;-46
2021/01/28 00:24:14;;;;;;;5.70;3.35;;;8.70;99.90;;;;;;4982007;28;20232;-51
2021/01/28 00:26:46;;;;;;;3.15;2.85;;;8.60;99.90;;;;;;4982789;28;20231;-47
2021/01/28 00:29:16;;;;;;;3.15;2.85;;;8.40;99.90;;;;;;4965399;28;20209;-49
2021/01/28 00:31:46;;;;;;;4.30;3.10;;;8.30;99.90;;;;;;4979209;28;20220;-50
2021/01/28 00:34:17;;;;;;;3.15;2.90;;;8.30;99.90;;;;;;4978489;28;20213;-50
2021/01/28 00:36:47;;;;;;;3.15;2.63;;;8.20;99.90;;;;;;4972091;28;20229;-49
2021/01/28 00:39:17;;;;;;;3.75;2.95;;;8.10;99.90;;;;;;4980744;28;20260;-51
2021/01/28 00:41:49;;;;;;;4.22;2.78;;;8.00;99.90;;;;;;4982279;28;20636;-53
2021/01/28 00:44:19;;;;;;;4.47;3.08;;;7.80;99.90;;;;;;4988909;28;20204;-46
2021/01/28 00:46:50;;;;;;;3.45;3.15;;;7.80;99.90;;;;;;4988285;28;20209;-47
2021/01/28 00:49:20;;;;;;;3.58;3.35;;;7.80;99.90;;;;;;4980732;28;20345;-47
2021/01/28 00:51:50;;;;;;;4.03;3.10;;;7.60;99.90;;;;;;4980140;28;20239;-49
2021/01/28 00:54:20;;;;;;;2.92;2.45;;;7.50;99.90;;;;;;4980570;28;20243;-48
2021/01/28 00:56:51;;;;;;;3.17;2.60;;;7.40;99.90;;;;;;4981480;28;20753;-49
2021/01/28 00:59:21;;;;;;;4.45;2.70;;;7.30;99.90;;;;;;4981423;28;20224;-47
2021/01/28 01:01:51;;;;;;;3.30;3.00;;;7.30;99.90;;;;;;4979083;28;20271;-46
2021/01/28 01:04:21;;;;;;;3.28;2.75;;;7.20;99.90;;;;;;4981520;28;20200;-48
2021/01/28 01:06:56;;;;;;;4.95;3.17;;;7.10;99.90;;;;;;4980908;28;20219;-45
2021/01/28 01:09:27;;;;;;;4.00;2.97;;;7.00;99.90;;;;;;4980698;28;20197;-45
2021/01/28 01:11:59;;;;;;;3.25;3.00;;;7.00;99.90;;;;;;4980214;28;20275;-49
2021/01/28 01:14:30;;;;;;;2.78;2.58;;;6.90;99.90;;;;;;4981387;28;20259;-45
2021/01/28 01:17:00;;;;;;;3.42;2.88;;;6.90;99.90;;;;;;4979761;28;20208;-44
2021/01/28 01:19:30;;;;;;;4.15;3.22;;;6.80;99.90;;;;;;4983442;28;20260;-46
2021/01/28 01:22:00;;;;;;;4.20;3.80;;;6.80;99.90;;;;;;4982563;28;20207;-45
2021/01/28 01:24:31;;;;;;;4.35;3.55;;;6.90;99.90;;;;;;4982848;28;20204;-44
2021/01/28 01:27:02;;;;;;;4.30;3.90;;;6.90;99.90;;;;;;4979367;28;20208;-42
2021/01/28 01:29:32;;;;;;;3.75;3.45;;;6.80;99.90;;;;;;4981586;28;20239;-43
2021/01/28 01:32:02;;;;;;;3.63;3.33;;;6.80;99.90;;;;;;4980800;28;20247;-47
2021/01/28 01:34:33;;;;;;;3.88;3.25;;;6.80;99.90;;;;;;4978240;28;20197;-44
2021/01/28 01:37:03;;;;;;;4.45;3.40;;;6.80;99.90;;;;;;4979947;28;20275;-43
2021/01/28 01:39:33;;;;;;;4.00;3.60;;;6.70;99.90;;;;;;4983693;28;20243;-45
2021/01/28 01:42:08;;;;;;;4.10;3.50;;;6.50;99.90;;;;;;4981872;28;20204;-44
2021/01/28 01:44:39;;;;;;;3.90;3.60;;;6.40;99.90;;;;;;4975719;28;20200;-46
2021/01/28 01:47:33;;;;;;;3.95;3.47;;;6.40;99.90;;;;;;4986383;28;20262;-48
2021/01/28 01:50:06;;;;;;;4.93;3.47;;;6.30;99.90;;;;;;4986632;28;20288;-46
2021/01/28 01:52:37;;;;;;;4.57;3.80;;;6.20;99.90;;;;;;4983657;28;20200;-46
2021/01/28 01:55:09;;;;;;;5.20;3.30;;;6.20;99.90;;;;;;4979281;28;20189;-45
2021/01/28 01:57:40;;;;;;;4.65;3.92;;;6.30;99.90;;;;;;4976588;28;20209;-48
2021/01/28 02:00:13;;;;;;;5.50;4.90;;;6.30;99.90;;;;;;4992563;28;20301;-48
2021/01/28 02:02:46;;;;;;;5.50;4.55;;;6.30;99.90;;;;;;4982010;28;20201;-49
2021/01/28 02:05:19;;;;;;;4.88;4.38;;;6.20;99.90;;;;;;4984835;28;20196;-47
2021/01/28 02:07:50;;;;;;;5.75;5.15;;;6.20;99.90;;;;;;4981137;28;20196;-48
2021/01/28 02:10:22;;;;;;;4.90;4.40;;;6.10;99.90;;;;;;4986301;28;20211;-45
2021/01/28 02:12:55;;;;;;;6.63;5.32;;;6.00;99.90;;;;;;4980312;28;20224;-45
2021/01/28 02:15:26;;;;;;;5.20;4.70;;;6.00;99.90;;;;;;4983876;28;20212;-46
2021/01/28 02:18:18;;;;;;;7.07;4.95;;;5.90;99.90;;;;;;4983850;28;20713;-46
2021/01/28 02:21:04;;;;;;;5.60;4.90;;;5.90;99.90;;;;;;4967673;28;20256;-46
2021/01/28 02:23:50;;;;;;;8.65;5.32;;;6.00;99.90;;;;;;4983757;28;20212;-47
2021/01/28 02:26:21;;;;;;;6.93;5.63;;;5.90;99.90;;;;;;4983961;28;20308;-45
2021/01/28 02:28:51;;;;;;;5.43;5.03;;;6.00;99.90;;;;;;4982219;28;20189;-44
2021/01/28 02:31:22;;;;;;;14.95;6.45;;;6.10;99.90;;;;;;4984997;28;20196;-48
2021/01/28 02:33:54;;;;;;;5.20;4.70;;;6.20;99.90;;;;;;4981203;28;20201;-45
2021/01/28 02:36:30;;;;;;;5.57;4.50;;;6.40;99.90;;;;;;4980273;28;20200;-48
2021/01/28 02:39:00;;;;;;;4.60;4.20;;;6.40;99.90;;;;;;4984442;28;20215;-46
2021/01/28 02:41:33;;;;;;;5.20;4.18;;;6.40;99.90;;;;;;4982209;28;20575;-46
2021/01/28 02:44:03;;;;;;;5.55;4.35;;;6.50;99.90;;;;;;4982956;28;20205;-46
2021/01/28 02:46:34;;;;;;;4.80;4.30;;;6.60;99.90;;;;;;4983786;28;20674;-44
2021/01/28 02:49:04;;;;;;;4.32;3.92;;;6.60;99.90;;;;;;4980519;28;20217;-49
2021/01/28 02:51:35;;;;;;;4.88;3.90;;;6.70;99.90;;;;;;4981500;28;20236;-45
2021/01/28 02:54:06;;;;;;;7.18;4.18;;;6.80;99.90;;;;;;4981535;28;20224;-46
2021/01/28 02:56:37;;;;;;;5.63;4.40;;;6.90;99.90;;;;;;4982557;28;20197;-51
2021/01/28 02:59:08;;;;;;;5.15;4.75;;;7.00;99.90;;;;;;4982947;28;20200;-51
2021/01/28 03:01:39;;;;;;;4.55;4.15;;;6.90;99.90;;;;;;4981884;28;20201;-49
2021/01/28 03:04:11;;;;;;;7.55;4.25;;;6.90;99.90;;;;;;4979626;28;20278;-45
2021/01/28 03:06:41;;;;;;;5.82;5.25;;;7.00;99.90;;;;;;4985235;28;20209;-48
2021/01/28 03:09:11;;;;;;;4.82;4.38;;;7.10;99.90;;;;;;4985614;28;20267;-48
2021/01/28 03:11:43;;;;;;;4.60;3.97;;;7.10;99.90;;;;;;4970880;28;20232;-47
2021/01/28 03:14:13;;;;;;;5.75;5.18;;;7.20;99.90;;;;;;4973466;28;20241;-46
2021/01/28 03:16:43;;;;;;;5.15;4.68;;;7.20;99.90;;;;;;4981788;28;20251;-48
2021/01/28 03:19:14;;;;;;;5.45;4.95;;;7.10;99.90;;;;;;4980745;28;20272;-47
2021/01/28 03:21:45;;;;;;;10.05;8.90;;;7.00;99.90;;;;;;4982299;28;20201;-47
2021/01/28 03:24:15;;;;;;;7.85;7.15;;;6.90;99.90;;;;;;4982291;28;20232;-50
2021/01/28 03:26:46;;;;;;;6.93;6.28;;;6.90;99.90;;;;;;4980948;28;20208;-47
2021/01/28 03:29:16;;;;;;;6.53;5.65;;;6.90;99.90;;;;;;4983358;28;20189;-44
2021/01/28 03:31:46;;;;;;;7.68;6.03;;;7.00;99.90;;;;;;4983080;28;20201;-49
2021/01/28 03:34:17;;;;;;;5.88;5.28;;;6.90;99.90;;;;;;4982709;28;20539;-51
2021/01/28 03:36:47;;;;;;;5.38;4.88;;;7.00;99.90;;;;;;4984785;28;20236;-45
2021/01/28 03:39:17;;;;;;;5.95;5.05;;;6.90;99.90;;;;;;4982112;28;20213;-45
2021/01/28 03:41:51;;;;;;;6.03;5.47;;;6.90;99.90;;;;;;4981782;28;20193;-51
2021/01/28 03:44:21;;;;;;;5.95;5.40;;;6.90;99.90;;;;;;4981376;28;20205;-45
2021/01/28 03:46:51;;;;;;;5.47;4.97;;;6.90;99.90;;;;;;4980953;28;20205;-49
2021/01/28 03:49:21;;;;;;;6.75;6.10;;;6.80;99.90;;;;;;4981937;28;20201;-47
2021/01/28 03:51:52;;;;;;;6.30;5.70;;;6.80;99.90;;;;;;4982878;28;20201;-49
2021/01/28 03:54:22;;;;;;;5.97;5.43;;;6.80;99.90;;;;;;4982663;28;20205;-50
2021/01/28 03:56:53;;;;;;;6.32;5.75;;;6.80;99.90;;;;;;4980487;28;20201;-50
2021/01/28 03:59:23;;;;;;;6.80;6.18;;;6.80;99.90;;;;;;4973741;28;20676;-52
2021/01/28 04:01:53;;;;;;;7.45;6.65;;;6.80;99.90;;;;;;4978675;28;20212;-46
2021/01/28 04:04:23;;;;;;;7.00;6.30;;;6.70;99.90;;;;;;4984957;28;20275;-46
2021/01/28 04:06:54;;;;;;;7.40;6.80;;;6.80;99.90;;;;;;4968249;28;20308;-49
2021/01/28 04:09:24;;;;;;;5.90;5.40;;;6.70;99.90;;;;;;4980489;28;20271;-48
2021/01/28 04:14:44;;;;;;;6.07;5.57;;;6.70;99.90;;;;;;4986297;28;20608;-47
2021/01/28 04:17:14;;;;;;;6.70;6.07;;;6.80;99.90;;;;;;4979132;28;20205;-50
2021/01/28 04:19:44;;;;;;;7.22;5.60;;;6.80;99.90;;;;;;4983885;28;20312;-48
2021/01/28 04:22:14;;;;;;;8.25;5.03;;;6.80;99.90;;;;;;4983462;28;20236;-46
2021/01/28 04:24:44;;;;;;;6.70;5.40;;;6.80;99.90;;;;;;4979575;28;20229;-49
2021/01/28 04:27:16;;;;;;;5.95;5.15;;;6.80;99.90;;;;;;4990859;28;20259;-47
2021/01/28 04:29:46;;;;;;;5.97;5.47;;;6.80;99.90;;;;;;4966874;28;20259;-47
2021/01/28 04:32:17;;;;;;;6.05;5.45;;;6.80;99.90;;;;;;4983499;28;20205;-49
2021/01/28 04:34:47;;;;;;;5.65;5.15;;;6.90;99.90;;;;;;4965009;28;20209;-46
2021/01/28 04:37:18;;;;;;;5.40;4.90;;;6.90;99.90;;;;;;4970763;28;20208;-49
2021/01/28 04:39:50;;;;;;;6.00;4.80;;;6.90;99.90;;;;;;4973048;28;20220;-47
2021/01/28 04:42:24;;;;;;;5.13;4.63;;;7.00;99.90;;;;;;4965539;28;20217;-47
2021/01/28 04:44:54;;;;;;;5.03;4.63;;;6.80;99.90;;;;;;4965770;28;20216;-49
2021/01/28 04:47:25;;;;;;;5.43;4.25;;;6.80;99.90;;;;;;4969696;28;20197;-46
2021/01/28 04:49:58;;;;;;;5.93;4.03;;;6.90;99.90;;;;;;4964673;28;20252;-47
2021/01/28 04:52:32;;;;;;;4.43;4.13;;;6.90;99.90;;;;;;4968739;28;20525;-49
2021/01/28 04:55:03;;;;;;;4.10;3.80;;;6.70;99.90;;;;;;4983712;28;20201;-42
2021/01/28 04:57:34;;;;;;;4.05;3.65;;;6.80;99.90;;;;;;4979827;28;20205;-45
2021/01/28 05:00:06;;;;;;;4.20;3.63;;;6.80;99.90;;;;;;4967252;28;20236;-45
2021/01/28 05:02:36;;;;;;;4.22;3.83;;;6.90;99.90;;;;;;4981122;28;20528;-45
2021/01/28 05:05:10;;;;;;;5.00;4.35;;;7.00;99.90;;;;;;4981006;28;20209;-45
2021/01/28 05:07:48;;;;;;;3.50;3.20;;;7.10;99.90;;;;;;4973122;28;20209;-46
2021/01/28 05:10:35;;;;;;;3.83;3.38;;;7.10;99.90;;;;;;4979910;28;20255;-43
2021/01/28 05:13:27;;;;;;;3.83;3.50;;;7.20;99.90;;;;;;4980803;28;20737;-46
2021/01/28 05:15:59;;;;;;;3.97;3.58;;;7.20;99.90;;;;;;4978281;28;20212;-47
2021/01/28 05:18:35;;;;;;;3.63;3.33;;;7.10;99.90;;;;;;4982767;28;20204;-47
2021/01/28 05:21:13;;;;;;;4.40;4.10;;;7.20;99.90;;;;;;4982421;28;20239;-46
2021/01/28 05:23:44;;;;;;;3.58;3.28;;;7.20;99.90;;;;;;4972686;28;20346;-47
2021/01/28 05:26:37;;;;;;;3.45;3.17;;;7.20;99.90;;;;;;4982164;28;20219;-45
2021/01/28 05:29:27;;;;;;;3.70;3.40;;;7.30;99.90;;;;;;4982687;28;20696;-45
2021/01/28 05:31:59;;;;;;;3.30;3.00;;;7.20;99.90;;;;;;4968690;28;20220;-43
2021/01/28 05:34:32;;;;;;;4.07;3.67;;;7.30;99.90;;;;;;4979479;28;20308;-44
2021/01/28 05:37:07;;;;;;;4.07;3.67;;;7.30;99.90;;;;;;4982574;28;20260;-45
2021/01/28 05:39:40;;;;;;;4.05;3.67;;;7.30;99.90;;;;;;4983083;28;20212;-45
2021/01/28 05:42:21;;;;;;;4.03;3.72;;;7.30;99.90;;;;;;4977978;28;20209;-44
2021/01/28 05:44:52;;;;;;;4.07;3.78;;;7.30;99.90;;;;;;4974454;28;20212;-47
2021/01/28 05:47:29;;;;;;;3.90;3.60;;;7.40;99.90;;;;;;4982175;28;20263;-44
2021/01/28 05:50:16;;;;;;;5.60;5.10;;;7.40;99.90;;;;;;4980993;28;20262;-47
2021/01/28 05:52:46;;;;;;;6.63;5.70;;;7.50;99.90;;;;;;4981982;28;20196;-45
2021/01/28 05:55:18;;;;;;;7.20;6.45;;;7.50;99.90;;;;;;4983065;28;20220;-50
2021/01/28 05:57:54;;;;;;;6.70;6.10;;;7.60;99.90;;;;;;4978561;28;20267;-44
2021/01/28 06:00:37;;;;;;;8.32;7.07;;;7.60;99.90;;;;;;4980760;28;20231;-46
2021/01/28 06:03:47;;;;;;;6.97;5.85;;;7.60;99.90;;;;;;4981047;28;20612;-48
2021/01/28 06:06:34;;;;;;;5.13;4.50;;;7.60;99.90;;;;;;4979187;28;20239;-45
2021/01/28 06:09:18;;;;;;;4.03;3.72;;;7.60;99.90;;;;;;4968604;28;20281;-46
2021/01/28 06:12:22;;;;;;;5.47;4.57;;;7.70;99.90;;;;;;4969434;28;20687;-44
2021/01/28 06:15:17;;;;;;;2.80;2.60;;;7.70;99.90;;;;;;4956501;28;20236;-47
2021/01/28 06:18:24;;;;;;;2.70;2.50;;;7.70;99.90;;;;;;4978349;28;20217;-45
2021/01/28 06:21:39;;;;;;;2.47;2.28;;;7.70;99.90;;;;;;4941605;28;20378;-46
2021/01/28 06:24:27;;;;;;;2.67;2.08;;;7.70;99.90;;;;;;4887631;29;20263;-47
2021/01/28 06:27:11;;;;;;;1.83;1.70;;;7.60;99.90;;;;;;4884383;29;20211;-46
2021/01/28 06:30:02;;;;;;;2.05;1.90;;;7.70;99.90;;;;;;4888851;29;20204;-46
2021/01/28 06:33:17;;;;;;;1.65;1.55;;;7.70;99.90;;;;;;4885978;29;20237;-45
2021/01/28 06:36:07;;;;;;;1.45;1.35;;;7.70;99.90;;;;;;4886312;29;20854;-44
2021/01/28 06:39:06;;;;;;;2.40;1.35;;;7.60;99.90;;;;;;4888567;29;20208;-47
2021/01/28 06:41:43;;;;;;;1.40;1.30;;;7.60;99.90;;;;;;4892109;29;20314;-44
2021/01/28 06:44:18;;;;;;;1.42;1.17;;;7.70;99.90;;;;;;4888935;29;20616;-45
2021/01/28 06:46:58;;;;;;;1.05;0.95;;;7.70;99.90;;;;;;4885052;29;20294;-45
2021/01/28 06:49:38;;;;;;;1.17;0.90;;;7.70;99.90;;;;;;4883817;29;20620;-46
2021/01/28 06:52:19;;;;;;;1.35;1.00;;;7.70;99.90;;;;;;4882393;29;20279;-47
2021/01/28 06:54:58;;;;;;;1.48;1.20;;;7.70;99.90;;;;;;4888332;29;20672;-44
2021/01/28 06:57:35;;;;;;;0.98;0.98;;;7.80;99.90;;;;;;4915442;28;20228;-44
2021/01/28 07:00:11;;;;;;;1.48;1.13;;;7.60;99.90;;;;;;4978041;28;20220;-45
2021/01/28 07:02:58;;;;;;;1.20;1.05;;;7.70;99.90;;;;;;4985311;28;20204;-44
2021/01/28 07:05:48;;;;;;;1.58;1.20;;;7.60;99.90;;;;;;4982717;28;20205;-48
2021/01/28 07:08:37;;;;;;;1.20;1.10;;;7.70;99.90;;;;;;4979870;28;20208;-46
2021/01/28 07:11:17;;;;;;;1.08;1.00;;;7.70;99.90;;;;;;4979321;28;20223;-44
2021/01/28 07:13:47;;;;;;;0.60;0.52;;;7.60;99.90;;;;;;4985433;28;20241;-45
2021/01/28 07:16:23;;;;;;;1.00;0.95;;;7.60;99.90;;;;;;4985573;28;20216;-47
2021/01/28 07:18:57;;;;;;;0.82;0.82;;;7.60;99.90;;;;;;4985339;28;20284;-47
2021/01/28 07:21:33;;;;;;;0.82;0.82;;;7.60;99.90;;;;;;4984950;28;21184;-46
2021/01/28 07:24:11;;;;;;;0.93;0.93;;;7.60;99.90;;;;;;4968325;28;20209;-45
2021/01/28 07:26:52;;;;;;;0.93;0.80;;;7.60;99.90;;;;;;4970425;28;20197;-44
2021/01/28 07:29:56;;;;;;;1.45;1.35;;;7.60;99.90;;;;;;4981222;28;20204;-45
2021/01/28 07:32:54;;;;;;;2.22;2.08;;;7.50;99.90;;;;;;4984411;28;20632;-43
2021/01/28 07:35:51;;;;;;;2.08;1.85;;;7.30;99.90;;;;;;4956018;28;20213;-43
2021/01/28 07:38:46;;;;;;;3.00;2.58;;;7.20;99.90;;;;;;4983186;28;20243;-45
2021/01/28 07:41:26;;;;;;;3.17;2.17;;;7.10;99.90;;;;;;4963494;28;20251;-42
2021/01/28 07:44:38;;;;;;;2.88;2.67;;;6.90;99.90;;;;;;4979680;28;20271;-49
2021/01/28 07:47:15;;;;;;;2.00;1.90;;;6.80;99.90;;;;;;4974707;28;20311;-45
2021/01/28 07:50:16;;;;;;;1.90;1.80;;;6.70;99.90;;;;;;4984909;28;20484;-40
2021/01/28 07:52:47;;;;;;;2.35;1.52;;;6.60;99.90;;;;;;4975718;28;20201;-40
2021/01/28 07:55:39;;;;;;;2.45;1.90;;;6.50;99.90;;;;;;4983488;28;20301;-40
2021/01/28 07:58:21;;;;;;;2.88;2.55;;;6.40;99.90;;;;;;4979438;28;20213;-39
2021/01/28 08:00:53;;;;;;;2.05;1.60;;;6.40;99.90;;;;;;4984680;28;20250;-38
2021/01/28 08:03:33;;;;;;;1.55;1.45;;;6.40;99.90;;;;;;4977543;28;20205;-39
2021/01/28 08:06:08;;;;;;;1.42;1.33;;;6.30;99.90;;;;;;4970251;28;20271;-38
2021/01/28 08:08:39;;;;;;;1.50;1.40;;;6.30;99.90;;;;;;4984595;28;20643;-38
2021/01/28 08:11:18;;;;;;;1.50;1.40;;;6.20;99.90;;;;;;4981752;28;20228;-36
2021/01/28 08:13:56;;;;;;;1.38;1.27;;;6.20;99.90;;;;;;4981795;28;20287;-37
2021/01/28 08:16:27;;;;;;;1.85;1.50;;;6.20;99.90;;;;;;4972810;28;20296;-38
2021/01/28 08:19:07;;;;;;;2.25;1.30;;;6.20;99.90;;;;;;4984259;28;20294;-38
2021/01/28 08:21:39;;;;;;;2.05;1.48;;;6.10;99.90;;;;;;4972726;28;20226;-38
2021/01/28 08:24:20;;;;;;;1.65;1.55;;;6.10;99.90;;;;;;4970495;28;20200;-38
2021/01/28 08:26:51;;;;;;;1.80;1.70;;;6.00;99.90;;;;;;4980007;28;20674;-38
2021/01/28 08:29:22;;;;;;;1.88;1.40;;;6.00;99.90;;;;;;4981715;28;20229;-38
2021/01/28 08:31:55;;;;;;;1.45;1.35;;;6.00;99.90;;;;;;4980868;28;20274;-38
2021/01/28 08:34:28;;;;;;;1.80;1.70;;;5.90;99.90;;;;;;4983758;28;20211;-37
2021/01/28 08:37:02;;;;;;;1.85;1.20;;;5.90;99.90;;;;;;4981604;28;20209;-38
2021/01/28 08:39:34;;;;;;;2.65;1.60;;;5.90;99.90;;;;;;4981359;28;20317;-37
2021/01/28 08:42:06;;;;;;;1.40;1.30;;;5.90;99.90;;;;;;4981014;28;20232;-37
2021/01/28 08:44:39;;;;;;;1.25;1.15;;;5.90;99.90;;;;;;4984160;28;20674;-38
2021/01/28 08:47:14;;;;;;;2.25;1.50;;;5.90;99.90;;;;;;4968086;28;20217;-38
2021/01/28 08:49:45;;;;;;;1.17;1.08;;;5.90;99.90;;;;;;4968415;28;20268;-38
2021/01/28 08:52:18;;;;;;;1.20;1.10;;;5.80;99.90;;;;;;4974602;28;20224;-37
2021/01/28 08:54:48;;;;;;;1.63;1.30;;;5.80;99.90;;;;;;4972187;28;20699;-38
2021/01/28 08:57:21;;;;;;;1.30;1.20;;;5.80;99.90;;;;;;4973644;28;20195;-38
2021/01/28 08:59:53;;;;;;;1.20;1.13;;;5.80;99.90;;;;;;4969062;28;20698;-38
2021/01/28 09:02:28;;;;;;;1.10;1.00;;;5.90;99.90;;;;;;4975066;28;20268;-38
2021/01/28 09:05:05;;;;;;;1.30;1.20;;;5.80;99.90;;;;;;4966690;28;20212;-38
2021/01/28 09:07:51;;;;;;;1.67;1.30;;;5.90;99.90;;;;;;4972330;28;20201;-39
2021/01/28 09:10:35;;;;;;;0.90;0.90;;;5.90;99.90;;;;;;4976187;28;20205;-38
2021/01/28 09:13:22;;;;;;;1.15;1.10;;;5.90;99.90;;;;;;4981832;28;20238;-38
2021/01/28 09:16:08;;;;;;;1.55;1.13;;;5.90;99.90;;;;;;4973065;28;20245;-38
2021/01/28 09:18:42;;;;;;;1.25;1.15;;;5.90;99.90;;;;;;4964489;28;20548;-38
2021/01/28 09:21:15;;;;;;;1.05;1.00;;;5.80;99.90;;;;;;4975568;28;20382;-38
2021/01/28 09:23:58;;;;;;;1.35;1.20;;;5.80;99.90;;;;;;4981146;28;20568;-38
2021/01/28 09:26:31;;;;;;;1.38;1.15;;;5.80;99.90;;;;;;4969026;28;20228;-38
2021/01/28 09:29:10;;;;;;;1.65;1.20;;;5.80;99.90;;;;;;4982714;28;20197;-36
2021/01/28 09:31:41;;;;;;;1.67;1.33;;;5.80;99.90;;;;;;4986833;28;20212;-38
2021/01/28 09:34:25;;;;;;;1.55;1.45;;;5.90;99.90;;;;;;4983381;28;20240;-38
2021/01/28 09:36:57;;;;;;;1.35;1.35;;;5.90;99.90;;;;;;4974549;28;20209;-37
2021/01/28 09:39:33;;;;;;;1.33;1.15;;;5.80;99.90;;;;;;4976650;28;20695;-38
2021/01/28 09:42:21;;;;;;;1.63;1.52;;;5.80;99.90;;;;;;4982756;28;20227;-37
2021/01/28 09:44:51;;;;;;;2.55;1.45;;;5.80;99.90;;;;;;4983570;28;20299;-37
2021/01/28 09:47:26;;;;;;;4.18;1.30;;;5.90;99.90;;;;;;4982725;28;20738;-37
2021/01/28 09:49:59;;;;;;;1.83;1.58;;;5.90;99.90;;;;;;4965912;28;20281;-37
2021/01/28 09:52:31;;;;;;;1.23;1.17;;;5.90;99.90;;;;;;4982925;28;20524;-38
2021/01/28 09:55:05;;;;;;;2.95;2.10;;;5.90;99.90;;;;;;4983226;28;20204;-38
2021/01/28 09:57:35;;;;;;;1.55;1.30;;;5.90;99.90;;;;;;4982508;28;20583;-38
2021/01/28 10:00:08;;;;;;;1.40;1.40;;;5.90;99.90;;;;;;4984279;28;20204;-38
2021/01/28 10:02:42;;;;;;;1.60;1.50;;;5.90;99.90;;;;;;4979599;28;20215;-37
2021/01/28 10:05:18;;;;;;;1.80;1.70;;;5.90;99.90;;;;;;4987345;28;20242;-38
2021/01/28 10:07:49;;;;;;;1.80;1.70;;;5.90;99.90;;;;;;4986691;28;20231;-38
2021/01/28 10:10:21;;;;;;;2.05;1.80;;;5.90;99.90;;;;;;4980230;28;20209;-38
2021/01/28 10:12:56;;;;;;;2.13;1.60;;;5.90;99.90;;;;;;4973372;28;20236;-38
2021/01/28 10:15:26;;;;;;;1.88;1.75;;;5.90;99.90;;;;;;4987278;28;20244;-38
2021/01/28 10:17:56;;;;;;;1.77;1.67;;;5.90;99.90;;;;;;4975556;28;20312;-38
2021/01/28 10:20:28;;;;;;;1.70;1.60;;;5.90;99.90;;;;;;4975332;28;20367;-37
2021/01/28 10:23:01;;;;;;;1.80;1.70;;;5.80;99.90;;;;;;4986900;28;20213;-38
2021/01/28 10:25:32;;;;;;;1.80;1.70;;;5.90;99.90;;;;;;4979669;28;20209;-38
2021/01/28 10:28:02;;;;;;;1.50;1.40;;;5.90;99.90;;;;;;4992807;28;20200;-38
2021/01/28 10:30:32;;;;;;;2.15;2.03;;;5.90;99.90;;;;;;4983154;28;20196;-38
2021/01/28 10:33:03;;;;;;;2.80;2.58;;;5.90;99.90;;;;;;4984471;28;20189;-38
2021/01/28 10:35:35;;;;;;;2.25;2.05;;;5.90;99.90;;;;;;4967998;28;20253;-38
2021/01/28 10:38:06;;;;;;;2.28;1.95;;;6.00;99.90;;;;;;4985414;28;20348;-38
2021/01/28 10:40:36;;;;;;;2.50;2.30;;;6.00;99.90;;;;;;4978836;28;20292;-38
2021/01/28 10:43:08;;;;;;;2.80;2.60;;;5.90;99.90;;;;;;4985771;28;20207;-38
2021/01/28 10:45:41;;;;;;;3.08;2.70;;;5.90;99.90;;;;;;4980888;28;20205;-38
2021/01/28 10:48:11;;;;;;;2.60;2.40;;;5.90;99.90;;;;;;4967201;28;20220;-38
2021/01/28 10:50:43;;;;;;;2.10;2.00;;;5.80;99.90;;;;;;4967269;28;20205;-38
2021/01/28 10:53:13;;;;;;;2.85;2.65;;;5.80;99.90;;;;;;4976593;28;20276;-38
2021/01/28 10:55:43;;;;;;;2.40;2.20;;;5.80;99.90;;;;;;4982890;28;20204;-38
2021/01/28 10:58:13;;;;;;;2.65;2.45;;;5.70;99.90;;;;;;4982950;28;20209;-38
2021/01/28 11:00:44;;;;;;;2.60;2.38;;;5.70;99.90;;;;;;4979516;28;20254;-38
2021/01/28 11:03:14;;;;;;;2.30;2.10;;;5.70;99.90;;;;;;4974243;28;20315;-38
2021/01/28 11:05:46;;;;;;;2.42;2.33;;;5.80;99.90;;;;;;4985701;28;20209;-38
2021/01/28 11:08:16;;;;;;;3.00;2.80;;;5.70;99.90;;;;;;4976251;28;20355;-38
2021/01/28 11:10:46;;;;;;;1.92;1.83;;;5.70;99.90;;;;;;4973222;28;20281;-38
2021/01/28 11:13:16;;;;;;;2.30;2.10;;;5.70;99.90;;;;;;4981836;28;20244;-38
2021/01/28 11:15:46;;;;;;;2.15;2.00;;;5.80;99.90;;;;;;4980971;28;20189;-38
2021/01/28 11:18:17;;;;;;;2.03;1.90;;;5.80;99.90;;;;;;4981668;28;20192;-37
2021/01/28 11:20:48;;;;;;;3.65;2.35;;;5.80;99.90;;;;;;4973919;28;20268;-38
2021/01/28 11:23:18;;;;;;;2.40;2.15;;;5.80;99.90;;;;;;4967951;28;20594;-38
2021/01/28 11:25:48;;;;;;;2.50;2.30;;;5.80;99.90;;;;;;4970888;28;20204;-38
2021/01/28 11:28:18;;;;;;;2.15;2.05;;;5.90;99.90;;;;;;4983977;28;20216;-38
2021/01/28 11:30:48;;;;;;;6.80;2.20;;;6.00;99.90;;;;;;4973839;28;20212;-36
2021/01/28 11:33:18;;;;;;;2.40;2.20;;;5.90;99.90;;;;;;4966761;28;20248;-38
2021/01/28 11:35:49;;;;;;;3.35;3.00;;;6.00;99.90;;;;;;4985057;28;20201;-38
2021/01/28 11:38:19;;;;;;;2.50;2.30;;;5.90;99.90;;;;;;4988997;28;20258;-38
2021/01/28 11:40:51;;;;;;;3.20;3.00;;;6.00;99.90;;;;;;4991947;28;20295;-37
2021/01/28 11:43:21;;;;;;;4.45;3.50;;;6.10;99.90;;;;;;4984338;28;20244;-37
2021/01/28 11:45:51;;;;;;;5.50;5.00;;;6.10;99.90;;;;;;4985078;28;20205;-37
2021/01/28 11:48:21;;;;;;;4.30;4.07;;;6.00;99.90;;;;;;4984838;28;20240;-38
2021/01/28 11:50:53;;;;;;;4.28;3.97;;;6.00;99.90;;;;;;4991459;28;20347;-38
2021/01/28 11:53:23;;;;;;;3.63;3.33;;;5.90;99.90;;;;;;4982168;28;20208;-37
2021/01/28 11:55:53;;;;;;;3.60;3.30;;;6.00;99.90;;;;;;4986162;28;20277;-37
2021/01/28 11:58:23;;;;;;;3.35;3.05;;;5.90;99.90;;;;;;4984600;28;20279;-37
2021/01/28 12:00:53;;;;;;;2.70;2.50;;;5.90;99.90;;;;;;4979071;28;20301;-37
2021/01/28 12:03:23;;;;;;;2.60;2.40;;;6.00;99.90;;;;;;4984209;28;20201;-37
2021/01/28 12:05:55;;;;;;;2.90;2.63;;;6.00;99.90;;;;;;4982615;28;20212;-37
2021/01/28 12:08:25;;;;;;;2.40;2.20;;;6.00;99.90;;;;;;4981255;28;20209;-37
2021/01/28 12:10:56;;;;;;;2.50;2.30;;;6.10;99.90;;;;;;4970598;28;20799;-38
2021/01/28 12:13:46;;;;;;;2.72;2.53;;;6.10;99.90;;;;;;4984458;28;20316;-37
2021/01/28 12:16:16;;;;;;;3.92;2.40;;;6.10;99.90;;;;;;4982475;28;20232;-37
2021/01/28 12:18:46;;;;;;;2.58;2.38;;;6.20;99.90;;;;;;4983195;28;20220;-38
2021/01/28 12:21:17;;;;;;;2.35;2.15;;;6.10;99.90;;;;;;4974614;28;20293;-38
2021/01/28 12:23:48;;;;;;;2.92;2.72;;;6.00;99.90;;;;;;4978407;28;20218;-38
2021/01/28 12:26:20;;;;;;;2.90;2.70;;;6.10;99.90;;;;;;4982965;28;20220;-38
2021/01/28 12:28:51;;;;;;;3.05;2.75;;;6.00;99.90;;;;;;4980315;28;20636;-38
2021/01/28 12:31:24;;;;;;;2.25;2.15;;;6.00;99.90;;;;;;4969240;28;20256;-38
2021/01/28 12:33:54;;;;;;;2.47;2.30;;;5.90;99.90;;;;;;4982233;28;20236;-38
2021/01/28 12:36:26;;;;;;;2.70;2.50;;;5.90;99.90;;;;;;4972869;28;20212;-38
2021/01/28 12:38:56;;;;;;;2.25;2.05;;;5.90;99.90;;;;;;4982393;28;20267;-37
2021/01/28 12:41:26;;;;;;;2.38;2.25;;;5.80;99.90;;;;;;4983089;28;20231;-37
2021/01/28 12:43:56;;;;;;;3.33;3.03;;;5.80;99.90;;;;;;4984203;28;20594;-37
2021/01/28 12:46:26;;;;;;;3.83;2.75;;;5.80;99.90;;;;;;4984657;28;20193;-38
2021/01/28 12:48:57;;;;;;;2.78;2.50;;;5.80;99.90;;;;;;4981748;28;20235;-37
2021/01/28 12:51:28;;;;;;;2.63;2.42;;;5.90;99.90;;;;;;4978693;28;20236;-37
2021/01/28 12:53:58;;;;;;;2.80;2.60;;;5.80;99.90;;;;;;4982522;28;20232;-37
2021/01/28 12:56:28;;;;;;;2.22;2.10;;;5.80;99.90;;;;;;4983127;28;20252;-37
2021/01/28 12:58:58;;;;;;;2.28;2.15;;;5.80;99.90;;;;;;4982640;28;20231;-38
2021/01/28 13:01:28;;;;;;;2.50;2.40;;;5.90;99.90;;;;;;4978903;28;20238;-38
2021/01/28 13:03:59;;;;;;;2.20;2.08;;;5.90;99.90;;;;;;4981905;28;20716;-38
2021/01/28 13:06:30;;;;;;;2.65;2.33;;;5.90;99.90;;;;;;4978029;28;20263;-38
2021/01/28 13:09:00;;;;;;;2.58;2.38;;;5.90;99.90;;;;;;4977987;28;20214;-37
2021/01/28 13:11:31;;;;;;;2.95;2.80;;;5.90;99.90;;;;;;4977149;28;20300;-38
2021/01/28 13:14:01;;;;;;;3.55;2.85;;;5.90;99.90;;;;;;4972810;28;21534;-38
2021/01/28 13:16:32;;;;;;;3.00;2.80;;;5.90;99.90;;;;;;4983301;28;20216;-37
2021/01/28 13:19:02;;;;;;;2.90;2.70;;;5.90;99.90;;;;;;4975912;28;20592;-38
2021/01/28 13:21:33;;;;;;;2.55;2.35;;;5.90;99.90;;;;;;4981853;28;20244;-38
2021/01/28 13:24:03;;;;;;;2.70;2.50;;;5.90;99.90;;;;;;4981333;28;20205;-38
2021/01/28 13:26:33;;;;;;;3.85;3.25;;;5.90;99.90;;;;;;4982403;28;20197;-37
2021/01/28 13:29:03;;;;;;;2.58;2.38;;;6.00;99.90;;;;;;4984059;28;20207;-38
2021/01/28 13:31:33;;;;;;;2.50;2.30;;;6.00;99.90;;;;;;4973511;28;20206;-38
2021/01/28 13:34:05;;;;;;;3.75;3.05;;;5.90;99.90;;;;;;4981755;28;20218;-38
2021/01/28 13:36:36;;;;;;;3.00;2.80;;;6.00;99.90;;;;;;4977770;28;20213;-38
2021/01/28 13:39:06;;;;;;;3.10;2.70;;;6.10;99.90;;;;;;4983031;28;20216;-38